createdAt,value
2023-04-10T00:00:08.828Z,99845.25
2023-04-10T00:02:40.168Z,99840.59
2023-04-10T00:05:08.386Z,99840.22
2023-04-10T00:07:36.033Z,99837.22
2023-04-10T00:10:03.520Z,99833.63
2023-04-10T00:12:31.313Z,99833.28
2023-04-10T00:14:59.297Z,99831.09
2023-04-10T00:17:26.706Z,99834.06
2023-04-10T00:19:54.066Z,99831.00
2023-04-10T00:22:21.720Z,99825.06
2023-04-10T00:24:49.108Z,99822.66
2023-04-10T00:27:16.476Z,99817.63
2023-04-10T00:29:44.178Z,99821.53
2023-04-10T00:32:11.608Z,99816.78
2023-04-10T00:34:39.009Z,99820.28
2023-04-10T00:37:07.269Z,99815.50
2023-04-10T00:39:34.721Z,99814.47
2023-04-10T00:42:02.418Z,99816.94
2023-04-10T00:44:30.352Z,99813.22
2023-04-10T00:46:57.845Z,99820.94
2023-04-10T00:49:25.336Z,99816.22
2023-04-10T00:51:55.683Z,99816.88
2023-04-10T00:54:23.964Z,99812.78
2023-04-10T00:56:53.024Z,99819.34
2023-04-10T00:59:21.281Z,99812.31
2023-04-10T01:01:48.777Z,99820.81
2023-04-10T01:04:16.747Z,99817.87
2023-04-10T01:07:09.565Z,99820.41
2023-04-10T01:09:41.914Z,99809.41
2023-04-10T01:12:37.933Z,99811.84
2023-04-10T01:15:23.851Z,99807.19
2023-04-10T01:18:10.035Z,99802.84
2023-04-10T01:20:38.513Z,99806.31
2023-04-10T01:23:30.774Z,99813.34
2023-04-10T01:26:02.015Z,99799.44
2023-04-10T01:28:39.301Z,99795.41
2023-04-10T01:31:09.222Z,99800.44
2023-04-10T01:34:00.816Z,99805.66
2023-04-10T01:36:32.347Z,99799.38
2023-04-10T01:39:00.411Z,99794.38
2023-04-10T01:41:28.009Z,99792.75
2023-04-10T01:43:56.387Z,99796.13
2023-04-10T01:46:24.925Z,99798.13
2023-04-10T01:48:53.962Z,99785.38
2023-04-10T01:51:22.150Z,99790.13
2023-04-10T01:53:50.776Z,99789.25
2023-04-10T01:56:22.434Z,99800.16
2023-04-10T01:58:51.048Z,99801.53
2023-04-10T02:01:29.200Z,99799.41
2023-04-10T02:03:58.883Z,99792.81
2023-04-10T02:06:33.419Z,99798.38
2023-04-10T02:09:28.582Z,99790.44
2023-04-10T02:12:04.607Z,99793.91
2023-04-10T02:14:33.198Z,99788.28
2023-04-10T02:17:01.762Z,99797.38
2023-04-10T02:19:29.315Z,99797.38
2023-04-10T02:21:58.091Z,99797.53
2023-04-10T02:24:27.134Z,99798.38
2023-04-10T02:26:54.535Z,99793.91
2023-04-10T02:29:23.616Z,99796.91
2023-04-10T02:31:51.006Z,99797.59
2023-04-10T02:34:19.751Z,99794.22
2023-04-10T02:36:47.387Z,99787.97
2023-04-10T02:39:14.857Z,99780.16
2023-04-10T02:41:46.474Z,99781.00
2023-04-10T02:44:14.500Z,99784.44
2023-04-10T02:46:43.725Z,99778.53
2023-04-10T02:49:11.259Z,99776.88
2023-04-10T02:51:39.128Z,99779.09
2023-04-10T02:54:06.511Z,99771.97
2023-04-10T02:56:35.131Z,99773.00
2023-04-10T02:59:03.556Z,99771.91
2023-04-10T03:01:32.105Z,99768.53
2023-04-10T03:03:59.956Z,99774.06
2023-04-10T03:06:27.905Z,99773.78
2023-04-10T03:08:56.204Z,99768.06
2023-04-10T03:11:23.679Z,99769.56
2023-04-10T03:13:51.681Z,99770.88
2023-04-10T03:16:19.263Z,99764.75
2023-04-10T03:18:47.183Z,99772.31
2023-04-10T03:21:14.890Z,99767.91
2023-04-10T03:23:42.704Z,99766.78
2023-04-10T03:26:11.309Z,99764.47
2023-04-10T03:28:39.833Z,99760.13
2023-04-10T03:31:10.717Z,99757.22
2023-04-10T03:33:39.244Z,99759.06
2023-04-10T03:36:07.618Z,99759.44
2023-04-10T03:38:35.806Z,99764.37
2023-04-10T03:41:03.356Z,99760.62
2023-04-10T03:43:31.575Z,99757.03
2023-04-10T03:45:59.143Z,99766.69
2023-04-10T03:48:28.558Z,99767.53
2023-04-10T03:50:56.525Z,99764.37
2023-04-10T03:53:24.389Z,99771.44
2023-04-10T03:55:52.924Z,99765.78
2023-04-10T03:58:21.463Z,99769.12
2023-04-10T04:00:48.986Z,99773.28
2023-04-10T04:03:18.147Z,99771.87
2023-04-10T04:05:47.563Z,99772.16
2023-04-10T04:08:18.107Z,99773.19
2023-04-10T04:10:49.886Z,99773.78
2023-04-10T04:13:17.889Z,99778.44
2023-04-10T04:15:48.051Z,99788.16
2023-04-10T04:18:15.926Z,99783.00
2023-04-10T04:20:43.367Z,99787.94
2023-04-10T04:23:11.013Z,99784.34
2023-04-10T04:25:39.192Z,99789.06
2023-04-10T04:28:08.287Z,99784.34
2023-04-10T04:30:35.801Z,99784.47
2023-04-10T04:33:04.835Z,99784.50
2023-04-10T04:35:32.654Z,99788.88
2023-04-10T04:38:00.478Z,99797.06
2023-04-10T04:40:28.898Z,99790.59
2023-04-10T04:42:56.664Z,99796.25
2023-04-10T04:45:24.877Z,99791.53
2023-04-10T04:47:54.755Z,99795.41
2023-04-10T04:50:22.323Z,99802.78
2023-04-10T04:52:50.854Z,99799.88
2023-04-10T04:55:19.114Z,99796.28
2023-04-10T04:57:48.097Z,99801.13
2023-04-10T05:00:17.340Z,99798.81
2023-04-10T05:02:46.626Z,99794.75
2023-04-10T05:05:14.173Z,99802.06
2023-04-10T05:07:41.762Z,99801.50
2023-04-10T05:10:10.082Z,99806.00
2023-04-10T05:12:37.903Z,99804.03
2023-04-10T05:15:06.421Z,99804.94
2023-04-10T05:17:34.250Z,99811.37
2023-04-10T05:20:02.566Z,99818.44
2023-04-10T05:22:35.530Z,99809.31
2023-04-10T05:25:06.121Z,99807.94
2023-04-10T05:27:34.691Z,99815.38
2023-04-10T05:30:03.718Z,99810.78
2023-04-10T05:32:32.874Z,99809.94
2023-04-10T05:35:00.692Z,99818.81
2023-04-10T05:37:28.541Z,99815.31
2023-04-10T05:39:57.323Z,99816.97
2023-04-10T05:42:25.029Z,99828.19
2023-04-10T05:44:53.053Z,99817.41
2023-04-10T05:47:22.164Z,99823.19
2023-04-10T05:49:49.951Z,99822.78
2023-04-10T05:52:19.595Z,99816.69
2023-04-10T05:54:47.371Z,99817.78
2023-04-10T05:57:15.901Z,99821.94
2023-04-10T05:59:43.762Z,99819.38
2023-04-10T06:02:12.172Z,99817.75
2023-04-10T06:04:40.565Z,99812.78
2023-04-10T06:07:08.307Z,99817.91
2023-04-10T06:09:35.671Z,99816.47
2023-04-10T06:12:06.056Z,99822.97
2023-04-10T06:14:33.499Z,99822.59
2023-04-10T06:17:01.817Z,99820.78
2023-04-10T06:19:29.560Z,99821.03
2023-04-10T06:21:57.507Z,99824.50
2023-04-10T06:24:24.908Z,99826.37
2023-04-10T06:26:52.688Z,99823.75
2023-04-10T06:29:20.379Z,99823.94
2023-04-10T06:31:47.840Z,99823.13
2023-04-10T06:34:16.563Z,99816.31
2023-04-10T06:36:47.501Z,99821.22
2023-04-10T06:39:15.029Z,99816.91
2023-04-10T06:41:42.654Z,99818.75
2023-04-10T06:44:13.358Z,99823.03
2023-04-10T06:46:40.901Z,99818.22
2023-04-10T06:49:08.743Z,99814.50
2023-04-10T06:51:36.512Z,99818.59
2023-04-10T06:54:03.912Z,99812.00
2023-04-10T06:56:33.741Z,99812.84
2023-04-10T06:59:01.655Z,99812.91
2023-04-10T07:01:29.107Z,99819.03
2023-04-10T07:03:56.845Z,99807.88
2023-04-10T07:06:24.751Z,99812.91
2023-04-10T07:08:52.382Z,99814.16
2023-04-10T07:11:20.177Z,99816.06
2023-04-10T07:13:47.570Z,99813.00
2023-04-10T07:16:15.013Z,99815.75
2023-04-10T07:18:42.699Z,99809.38
2023-04-10T07:21:12.178Z,99808.38
2023-04-10T07:23:39.723Z,99810.16
2023-04-10T07:26:07.429Z,99800.91
2023-04-10T07:28:34.960Z,99800.09
2023-04-10T07:31:02.466Z,99808.56
2023-04-10T07:33:30.115Z,99805.09
2023-04-10T07:35:57.716Z,99811.16
2023-04-10T07:38:25.491Z,99806.94
2023-04-10T07:40:57.456Z,99804.41
2023-04-10T07:43:25.264Z,99804.38
2023-04-10T07:45:53.073Z,99799.78
2023-04-10T07:48:20.634Z,99798.66
2023-04-10T07:50:48.193Z,99795.91
2023-04-10T07:53:16.068Z,99792.38
2023-04-10T07:55:44.818Z,99791.00
2023-04-10T07:58:12.204Z,99783.88
2023-04-10T08:00:39.960Z,99786.16
2023-04-10T08:03:08.051Z,99783.97
2023-04-10T08:05:36.364Z,99782.81
2023-04-10T08:08:03.832Z,99780.41
2023-04-10T08:10:31.663Z,99774.59
2023-04-10T08:12:59.058Z,99779.31
2023-04-10T08:15:26.449Z,99781.03
2023-04-10T08:17:54.243Z,99771.69
2023-04-10T08:20:21.686Z,99767.25
2023-04-10T08:22:49.089Z,99759.59
2023-04-10T08:25:16.874Z,99766.19
2023-04-10T08:27:44.308Z,99765.41
2023-04-10T08:30:11.904Z,99761.81
2023-04-10T08:32:39.823Z,99756.22
2023-04-10T08:35:07.606Z,99759.56
2023-04-10T08:37:35.026Z,99762.03
2023-04-10T08:40:02.663Z,99759.63
2023-04-10T08:42:31.693Z,99757.81
2023-04-10T08:44:59.986Z,99751.75
2023-04-10T08:47:28.977Z,99751.03
2023-04-10T08:49:57.887Z,99748.25
2023-04-10T08:52:26.253Z,99755.09
2023-04-10T08:54:56.081Z,99752.59
2023-04-10T08:57:23.699Z,99759.78
2023-04-10T08:59:51.715Z,99754.44
2023-04-10T09:02:20.291Z,99754.66
2023-04-10T09:04:51.160Z,99747.72
2023-04-10T09:07:18.971Z,99748.53
2023-04-10T09:09:46.581Z,99762.91
2023-04-10T09:12:15.464Z,99756.28
2023-04-10T09:14:43.454Z,99745.94
2023-04-10T09:17:22.015Z,99741.63
2023-04-10T09:19:52.791Z,99739.09
2023-04-10T09:22:30.003Z,99732.06
2023-04-10T09:24:59.438Z,99738.16
2023-04-10T09:27:39.792Z,99731.22
2023-04-10T09:30:08.463Z,99736.41
2023-04-10T09:32:37.261Z,99725.16
2023-04-10T09:35:05.926Z,99731.28
2023-04-10T09:37:34.301Z,99722.56
2023-04-10T09:40:04.366Z,99729.53
2023-04-10T09:42:33.958Z,99722.59
2023-04-10T09:45:01.901Z,99713.00
2023-04-10T09:47:29.922Z,99713.84
2023-04-10T09:50:00.633Z,99712.13
2023-04-10T09:52:29.049Z,99718.19
2023-04-10T09:55:01.360Z,99719.06
2023-04-10T09:57:30.891Z,99706.88
2023-04-10T10:00:08.317Z,99705.13
2023-04-10T10:02:41.424Z,99702.53
2023-04-10T10:05:09.926Z,99697.31
2023-04-10T10:07:38.783Z,99702.50
2023-04-10T10:10:09.807Z,99702.53
2023-04-10T10:12:37.223Z,99697.31
2023-04-10T10:15:14.554Z,99695.53
2023-04-10T10:18:25.472Z,99693.66
2023-04-10T10:20:53.516Z,99688.44
2023-04-10T10:23:22.457Z,99690.28
2023-04-10T10:25:50.502Z,99688.59
2023-04-10T10:28:19.459Z,99682.44
2023-04-10T10:30:48.134Z,99679.03
2023-04-10T10:33:15.588Z,99686.81
2023-04-10T10:35:44.497Z,99679.00
2023-04-10T10:38:12.433Z,99678.94
2023-04-10T10:41:01.048Z,99686.81
2023-04-10T10:43:47.401Z,99682.41
2023-04-10T10:46:21.712Z,99679.00
2023-04-10T10:48:58.346Z,99681.53
2023-04-10T10:51:49.807Z,99674.56
2023-04-10T10:54:40.354Z,99680.66
2023-04-10T10:57:47.399Z,99683.25
2023-04-10T11:00:16.380Z,99669.38
2023-04-10T11:02:44.133Z,99681.56
2023-04-10T11:05:51.027Z,99689.37
2023-04-10T11:08:19.180Z,99684.19
2023-04-10T11:11:06.053Z,99698.91
2023-04-10T11:13:38.877Z,99698.81
2023-04-10T11:16:07.948Z,99691.16
2023-04-10T11:18:44.654Z,99689.41
2023-04-10T11:21:19.633Z,99684.09
2023-04-10T11:23:50.184Z,99676.34
2023-04-10T11:26:39.882Z,99671.16
2023-04-10T11:29:27.406Z,99658.94
2023-04-10T11:31:54.862Z,99663.28
2023-04-10T11:34:22.748Z,99657.16
2023-04-10T11:36:50.417Z,99662.41
2023-04-10T11:39:18.845Z,99659.78
2023-04-10T11:41:50.766Z,99658.91
2023-04-10T11:44:31.988Z,99656.28
2023-04-10T11:46:59.725Z,99658.03
2023-04-10T11:49:30.447Z,99664.09
2023-04-10T11:51:57.946Z,99659.78
2023-04-10T11:54:27.299Z,99660.56
2023-04-10T11:57:07.243Z,99659.75
2023-04-10T11:59:35.414Z,99659.69
2023-04-10T12:02:11.585Z,99658.84
2023-04-10T12:04:40.296Z,99660.50
2023-04-10T12:07:08.535Z,99661.34
2023-04-10T12:09:36.467Z,99653.66
2023-04-10T12:12:08.416Z,99652.63
2023-04-10T12:14:40.402Z,99644.06
2023-04-10T12:17:10.425Z,99641.41
2023-04-10T12:19:41.041Z,99638.88
2023-04-10T12:22:12.741Z,99640.63
2023-04-10T12:24:47.773Z,99647.56
2023-04-10T12:27:23.445Z,99636.25
2023-04-10T12:29:52.522Z,99639.72
2023-04-10T12:32:20.814Z,99633.59
2023-04-10T12:34:52.674Z,99644.00
2023-04-10T12:37:20.740Z,99637.16
2023-04-10T12:39:48.248Z,99631.03
2023-04-10T12:42:17.768Z,99627.59
2023-04-10T12:44:55.309Z,99619.75
2023-04-10T12:47:23.547Z,99627.56
2023-04-10T12:50:07.937Z,99622.31
2023-04-10T12:52:36.087Z,99614.41
2023-04-10T12:55:19.955Z,99618.81
2023-04-10T12:57:49.891Z,99607.53
2023-04-10T13:00:19.225Z,99611.00
2023-04-10T13:02:47.925Z,99604.03
2023-04-10T13:05:16.004Z,99597.97
2023-04-10T13:07:43.678Z,99595.34
2023-04-10T13:10:11.288Z,99592.66
2023-04-10T13:12:40.081Z,99583.16
2023-04-10T13:15:08.222Z,99579.63
2023-04-10T13:17:36.048Z,99584.88
2023-04-10T13:20:04.683Z,99566.53
2023-04-10T13:22:32.355Z,99570.03
2023-04-10T13:24:59.830Z,99562.19
2023-04-10T13:27:27.211Z,99555.19
2023-04-10T13:29:55.264Z,99558.66
2023-04-10T13:32:22.658Z,99552.53
2023-04-10T13:34:50.290Z,99545.63
2023-04-10T13:37:17.980Z,99548.28
2023-04-10T13:39:45.369Z,99537.84
2023-04-10T13:42:13.728Z,99528.09
2023-04-10T13:44:41.464Z,99532.31
2023-04-10T13:47:09.197Z,99532.22
2023-04-10T13:49:37.781Z,99533.16
2023-04-10T13:52:05.515Z,99521.87
2023-04-10T13:54:32.920Z,99521.87
2023-04-10T13:57:00.703Z,99511.53
2023-04-10T13:59:29.239Z,99513.25
2023-04-10T14:01:56.688Z,99517.38
2023-04-10T14:04:24.366Z,99520.37
2023-04-10T14:06:53.159Z,99513.09
2023-04-10T14:09:20.722Z,99507.88
2023-04-10T14:11:48.417Z,99498.37
2023-04-10T14:14:15.928Z,99500.00
2023-04-10T14:16:43.339Z,99494.88
2023-04-10T14:19:11.045Z,99482.94
2023-04-10T14:21:40.503Z,99485.53
2023-04-10T14:24:07.889Z,99476.56
2023-04-10T14:26:35.569Z,99474.53
2023-04-10T14:29:03.070Z,99473.09
2023-04-10T14:31:30.489Z,99468.59
2023-04-10T14:33:58.200Z,99468.75
2023-04-10T14:36:25.641Z,99467.03
2023-04-10T14:38:53.158Z,99461.00
2023-04-10T14:41:21.256Z,99460.87
2023-04-10T14:43:48.660Z,99456.28
2023-04-10T14:46:17.734Z,99458.31
2023-04-10T14:48:46.450Z,99452.00
2023-04-10T14:51:13.821Z,99456.28
2023-04-10T14:53:41.305Z,99449.28
2023-04-10T14:56:12.382Z,99443.06
2023-04-10T14:58:40.083Z,99439.69
2023-04-10T15:01:11.827Z,99432.84
2023-04-10T15:03:40.249Z,99439.06
2023-04-10T15:06:08.105Z,99435.63
2023-04-10T15:08:35.527Z,99432.75
2023-04-10T15:11:05.223Z,99424.56
2023-04-10T15:13:33.014Z,99424.78
2023-04-10T15:16:00.644Z,99432.75
2023-04-10T15:18:28.422Z,99420.69
2023-04-10T15:20:58.330Z,99414.75
2023-04-10T15:23:26.718Z,99417.28
2023-04-10T15:25:55.006Z,99414.47
2023-04-10T15:28:22.348Z,99408.56
2023-04-10T15:30:50.261Z,99408.56
2023-04-10T15:33:18.008Z,99404.19
2023-04-10T15:35:49.416Z,99403.09
2023-04-10T15:38:16.875Z,99393.88
2023-04-10T15:40:44.515Z,99396.38
2023-04-10T15:43:12.841Z,99392.81
2023-04-10T15:45:40.211Z,99388.50
2023-04-10T15:48:07.929Z,99393.81
2023-04-10T15:50:37.389Z,99386.97
2023-04-10T15:53:04.825Z,99384.84
2023-04-10T15:55:32.524Z,99385.75
2023-04-10T15:58:02.260Z,99380.62
2023-04-10T16:00:29.988Z,99374.50
2023-04-10T16:02:58.473Z,99376.37
2023-04-10T16:05:26.094Z,99376.22
2023-04-10T16:07:53.464Z,99379.72
2023-04-10T16:10:21.400Z,99369.66
2023-04-10T16:12:50.877Z,99377.38
2023-04-10T16:15:18.458Z,99366.88
2023-04-10T16:17:46.205Z,99372.09
2023-04-10T16:20:14.274Z,99367.91
2023-04-10T16:22:41.663Z,99360.72
2023-04-10T16:25:09.608Z,99371.06
2023-04-10T16:27:37.024Z,99365.72
2023-04-10T16:30:06.549Z,99364.47
2023-04-10T16:32:34.296Z,99367.09
2023-04-10T16:35:01.684Z,99365.25
2023-04-10T16:37:29.128Z,99362.88
2023-04-10T16:39:56.853Z,99355.88
2023-04-10T16:42:24.258Z,99365.34
2023-04-10T16:44:52.145Z,99358.41
2023-04-10T16:47:19.818Z,99354.06
2023-04-10T16:49:47.291Z,99353.22
2023-04-10T16:52:14.728Z,99350.56
2023-04-10T16:54:42.366Z,99344.56
2023-04-10T16:57:09.714Z,99355.84
2023-04-10T16:59:37.092Z,99354.09
2023-04-10T17:02:04.751Z,99354.00
2023-04-10T17:04:32.133Z,99358.44
2023-04-10T17:06:59.516Z,99357.47
2023-04-10T17:09:28.339Z,99360.09
2023-04-10T17:11:55.961Z,99366.16
2023-04-10T17:14:25.207Z,99353.16
2023-04-10T17:16:53.989Z,99352.31
2023-04-10T17:19:21.519Z,99344.50
2023-04-10T17:21:48.883Z,99354.13
2023-04-10T17:24:17.365Z,99359.31
2023-04-10T17:26:44.826Z,99356.72
2023-04-10T17:29:12.201Z,99355.03
2023-04-10T17:31:39.871Z,99356.81
2023-04-10T17:34:07.270Z,99353.31
2023-04-10T17:36:35.877Z,99353.37
2023-04-10T17:39:03.712Z,99353.37
2023-04-10T17:41:33.418Z,99355.13
2023-04-10T17:44:02.524Z,99359.50
2023-04-10T17:46:30.173Z,99361.22
2023-04-10T17:49:01.164Z,99356.88
2023-04-10T17:51:28.923Z,99362.06
2023-04-10T17:53:56.698Z,99361.22
2023-04-10T17:56:24.074Z,99369.03
2023-04-10T17:58:53.199Z,99361.19
2023-04-10T18:01:27.551Z,99363.81
2023-04-10T18:03:56.185Z,99373.34
2023-04-10T18:06:23.796Z,99367.28
2023-04-10T18:08:51.329Z,99369.03
2023-04-10T18:11:19.592Z,99369.03
2023-04-10T18:13:47.490Z,99370.69
2023-04-10T18:16:15.011Z,99361.19
2023-04-10T18:18:43.167Z,99365.56
2023-04-10T18:21:11.575Z,99368.16
2023-04-10T18:23:40.542Z,99362.09
2023-04-10T18:26:08.410Z,99357.75
2023-04-10T18:28:37.767Z,99364.69
2023-04-10T18:31:05.349Z,99364.69
2023-04-10T18:33:33.351Z,99356.88
2023-04-10T18:36:00.727Z,99366.41
2023-04-10T18:38:28.280Z,99371.62
2023-04-10T18:40:57.188Z,99371.62
2023-04-10T18:43:27.668Z,99372.50
2023-04-10T18:45:55.829Z,99369.91
2023-04-10T18:48:23.566Z,99370.78
2023-04-10T18:50:55.561Z,99371.62
2023-04-10T18:53:24.137Z,99376.00
2023-04-10T18:55:53.958Z,99381.13
2023-04-10T18:58:22.517Z,99384.66
2023-04-10T19:00:50.342Z,99382.88
2023-04-10T19:03:18.346Z,99385.53
2023-04-10T19:05:46.114Z,99385.53
2023-04-10T19:08:16.148Z,99389.88
2023-04-10T19:10:44.100Z,99389.00
2023-04-10T19:13:12.880Z,99394.25
2023-04-10T19:15:42.299Z,99384.66
2023-04-10T19:18:11.788Z,99390.75
2023-04-10T19:20:50.738Z,99390.78
2023-04-10T19:23:21.106Z,99403.72
2023-04-10T19:25:55.558Z,99413.97
2023-04-10T19:28:24.112Z,99411.34
2023-04-10T19:30:52.468Z,99408.91
2023-04-10T19:33:20.548Z,99419.31
2023-04-10T19:35:48.032Z,99407.13
2023-04-10T19:38:15.754Z,99423.56
2023-04-10T19:40:44.928Z,99427.00
2023-04-10T19:43:12.788Z,99418.34
2023-04-10T19:45:41.039Z,99421.72
2023-04-10T19:48:10.083Z,99418.19
2023-04-10T19:50:37.716Z,99402.72
2023-04-10T19:53:05.433Z,99415.75
2023-04-10T19:55:32.962Z,99400.13
2023-04-10T19:58:02.204Z,99396.66
2023-04-10T20:00:30.235Z,99404.53
2023-04-10T20:02:58.586Z,99403.62
2023-04-10T20:05:26.366Z,99402.88
2023-04-10T20:07:54.092Z,99400.25
2023-04-10T20:10:22.063Z,99408.03
2023-04-10T20:12:49.429Z,99396.78
2023-04-10T20:15:17.567Z,99391.63
2023-04-10T20:17:46.797Z,99391.59
2023-04-10T20:20:14.383Z,99383.75
2023-04-10T20:22:41.777Z,99392.41
2023-04-10T20:25:09.749Z,99381.94
2023-04-10T20:27:37.198Z,99384.50
2023-04-10T20:30:05.148Z,99381.03
2023-04-10T20:32:32.803Z,99372.28
2023-04-10T20:35:00.205Z,99364.50
2023-04-10T20:37:27.624Z,99356.62
2023-04-10T20:39:55.280Z,99355.81
2023-04-10T20:42:23.243Z,99356.41
2023-04-10T20:44:50.682Z,99360.91
2023-04-10T20:47:18.351Z,99364.47
2023-04-10T20:49:45.756Z,99366.91
2023-04-10T20:52:13.371Z,99358.22
2023-04-10T20:54:41.050Z,99358.94
2023-04-10T20:57:08.456Z,99365.00
2023-04-10T20:59:36.638Z,99361.44
2023-04-10T21:02:04.358Z,99360.69
2023-04-10T21:04:32.828Z,99361.53
2023-04-10T21:07:00.421Z,99364.91
2023-04-10T21:09:28.090Z,99359.81
2023-04-10T21:11:55.533Z,99359.94
2023-04-10T21:14:22.921Z,99350.31
2023-04-10T21:16:50.707Z,99350.22
2023-04-10T21:19:18.201Z,99345.06
2023-04-10T21:21:45.592Z,99344.16
2023-04-10T21:24:13.342Z,99345.84
2023-04-10T21:26:40.874Z,99350.31
2023-04-10T21:29:08.277Z,99345.03
2023-04-10T21:31:36.072Z,99346.72
2023-04-10T21:34:03.685Z,99342.28
2023-04-10T21:36:32.690Z,99332.69
2023-04-10T21:39:01.353Z,99335.12
2023-04-10T21:41:28.788Z,99342.16
2023-04-10T21:44:00.268Z,99340.19
2023-04-10T21:46:28.203Z,99335.78
2023-04-10T21:48:55.826Z,99339.41
2023-04-10T21:51:25.743Z,99332.44
2023-04-10T21:53:54.934Z,99335.12
2023-04-10T21:56:22.363Z,99328.66
2023-04-10T21:58:49.766Z,99328.09
2023-04-10T22:01:17.469Z,99329.59
2023-04-10T22:03:45.184Z,99323.63
2023-04-10T22:06:12.618Z,99321.66
2023-04-10T22:08:41.297Z,99317.19
2023-04-10T22:11:09.011Z,99314.84
2023-04-10T22:13:36.504Z,99318.13
2023-04-10T22:16:05.353Z,99314.66
2023-04-10T22:18:33.596Z,99313.63
2023-04-10T22:21:01.011Z,99306.69
2023-04-10T22:23:28.433Z,99310.28
2023-04-10T22:25:56.044Z,99305.00
2023-04-10T22:28:23.444Z,99314.34
2023-04-10T22:30:51.028Z,99305.81
2023-04-10T22:33:18.752Z,99301.47
2023-04-10T22:35:46.300Z,99292.87
2023-04-10T22:38:13.686Z,99299.81
2023-04-10T22:40:43.004Z,99292.94
2023-04-10T22:43:10.995Z,99305.66
2023-04-10T22:45:40.287Z,99309.03
2023-04-10T22:48:07.988Z,99305.44
2023-04-10T22:50:35.482Z,99304.66
2023-04-10T22:53:02.901Z,99304.88
2023-04-10T22:55:30.636Z,99303.34
2023-04-10T22:57:58.014Z,99299.19
2023-04-10T23:00:25.465Z,99297.22
2023-04-10T23:02:53.178Z,99295.28
2023-04-10T23:05:20.627Z,99292.03
2023-04-10T23:07:48.027Z,99293.59
2023-04-10T23:10:15.760Z,99295.03
2023-04-10T23:12:43.209Z,99281.47
2023-04-10T23:15:10.932Z,99283.03
2023-04-10T23:17:38.842Z,99279.59
2023-04-10T23:20:06.868Z,99277.84
2023-04-10T23:22:34.298Z,99279.59
2023-04-10T23:25:02.057Z,99273.59
2023-04-10T23:27:29.541Z,99273.59
2023-04-10T23:29:56.906Z,99273.38
2023-04-10T23:32:24.575Z,99275.19
2023-04-10T23:34:52.032Z,99273.44
2023-04-10T23:37:19.423Z,99277.47
2023-04-10T23:39:47.027Z,99273.41
2023-04-10T23:42:14.389Z,99267.38
2023-04-10T23:44:41.727Z,99271.47
2023-04-10T23:47:09.383Z,99270.47
2023-04-10T23:49:36.779Z,99260.22
2023-04-10T23:52:04.287Z,99259.50
2023-04-10T23:54:31.924Z,99249.06
2023-04-10T23:56:59.444Z,99254.47
2023-04-10T23:59:26.808Z,99246.25
